createdAt,value
2023-04-27T00:01:13.248Z,99590.84
2023-04-27T00:03:40.313Z,99581.81
2023-04-27T00:06:08.377Z,99584.06
2023-04-27T00:08:35.477Z,99584.91
2023-04-27T00:11:02.213Z,99592.28
2023-04-27T00:13:28.995Z,99590.63
2023-04-27T00:15:55.738Z,99598.63
2023-04-27T00:18:22.462Z,99591.25
2023-04-27T00:20:49.764Z,99591.03
2023-04-27T00:23:16.475Z,99588.72
2023-04-27T00:25:43.149Z,99588.50
2023-04-27T00:28:09.779Z,99586.00
2023-04-27T00:30:36.457Z,99578.66
2023-04-27T00:33:03.208Z,99591.63
2023-04-27T00:35:29.998Z,99588.84
2023-04-27T00:37:58.280Z,99587.00
2023-04-27T00:40:24.963Z,99582.31
2023-04-27T00:42:52.725Z,99581.09
2023-04-27T00:45:19.415Z,99570.84
2023-04-27T00:47:46.320Z,99574.72
2023-04-27T00:50:12.993Z,99580.19
2023-04-27T00:52:39.956Z,99567.28
2023-04-27T00:55:07.265Z,99569.75
2023-04-27T00:57:34.575Z,99574.88
2023-04-27T01:00:02.247Z,99574.00
2023-04-27T01:02:30.208Z,99571.53
2023-04-27T01:04:57.261Z,99572.38
2023-04-27T01:07:27.287Z,99574.13
2023-04-27T01:09:54.112Z,99577.38
2023-04-27T01:12:21.111Z,99572.28
2023-04-27T01:14:48.809Z,99577.78
2023-04-27T01:17:15.442Z,99580.19
2023-04-27T01:19:42.371Z,99574.44
2023-04-27T01:22:10.407Z,99574.44
2023-04-27T01:24:38.077Z,99564.00
2023-04-27T01:27:05.601Z,99575.03
2023-04-27T01:29:32.376Z,99585.81
2023-04-27T01:31:59.201Z,99575.59
2023-04-27T01:34:26.063Z,99587.66
2023-04-27T01:36:52.751Z,99588.47
2023-04-27T01:39:21.184Z,99583.50
2023-04-27T01:41:47.843Z,99578.72
2023-04-27T01:44:14.546Z,99584.41
2023-04-27T01:46:41.512Z,99585.81
2023-04-27T01:49:08.486Z,99584.56
2023-04-27T01:51:35.167Z,99589.09
2023-04-27T01:54:01.776Z,99589.75
2023-04-27T01:56:28.422Z,99593.81
2023-04-27T01:58:55.841Z,99585.13
2023-04-27T02:01:23.003Z,99584.88
2023-04-27T02:03:50.048Z,99590.75
2023-04-27T02:06:16.812Z,99597.88
2023-04-27T02:08:43.492Z,99592.47
2023-04-27T02:11:10.448Z,99595.78
2023-04-27T02:13:37.121Z,99604.50
2023-04-27T02:16:05.346Z,99592.22
2023-04-27T02:18:32.781Z,99590.06
2023-04-27T02:20:59.469Z,99595.09
2023-04-27T02:23:26.182Z,99597.94
2023-04-27T02:25:52.870Z,99601.59
2023-04-27T02:28:19.520Z,99591.63
2023-04-27T02:30:46.544Z,99595.47
2023-04-27T02:33:13.195Z,99598.41
2023-04-27T02:35:39.848Z,99590.19
2023-04-27T02:38:06.719Z,99582.28
2023-04-27T02:40:37.171Z,99590.63
2023-04-27T02:43:06.246Z,99590.19
2023-04-27T02:45:37.256Z,99591.72
2023-04-27T02:48:05.970Z,99594.94
2023-04-27T02:50:35.140Z,99593.81
2023-04-27T02:53:02.867Z,99593.66
2023-04-27T02:55:29.897Z,99596.84
2023-04-27T02:57:56.595Z,99592.16
2023-04-27T03:00:23.264Z,99594.19
2023-04-27T03:02:50.098Z,99597.00
2023-04-27T03:05:16.996Z,99603.69
2023-04-27T03:07:43.787Z,99598.09
2023-04-27T03:10:10.729Z,99602.97
2023-04-27T03:12:37.350Z,99609.97
2023-04-27T03:15:04.375Z,99607.22
2023-04-27T03:17:31.332Z,99603.28
2023-04-27T03:19:58.111Z,99611.59
2023-04-27T03:22:24.995Z,99617.09
2023-04-27T03:24:51.683Z,99616.25
2023-04-27T03:27:18.340Z,99612.31
2023-04-27T03:29:44.983Z,99617.34
2023-04-27T03:32:11.682Z,99619.50
2023-04-27T03:34:38.450Z,99624.34
2023-04-27T03:37:06.395Z,99630.63
2023-04-27T03:39:36.844Z,99627.00
2023-04-27T03:42:03.870Z,99621.22
2023-04-27T03:44:34.186Z,99631.00
2023-04-27T03:47:01.860Z,99630.84
2023-04-27T03:49:28.979Z,99631.28
2023-04-27T03:51:56.420Z,99634.59
2023-04-27T03:54:23.079Z,99635.06
2023-04-27T03:56:49.925Z,99641.72
2023-04-27T03:59:16.876Z,99637.53
2023-04-27T04:01:49.076Z,99645.22
2023-04-27T04:04:16.102Z,99641.50
2023-04-27T04:06:42.979Z,99638.81
2023-04-27T04:09:12.705Z,99634.34
2023-04-27T04:11:40.171Z,99639.38
2023-04-27T04:14:09.055Z,99635.72
2023-04-27T04:16:35.696Z,99639.88
2023-04-27T04:19:02.391Z,99642.16
2023-04-27T04:21:29.175Z,99633.72
2023-04-27T04:23:56.426Z,99630.88
2023-04-27T04:26:23.647Z,99637.44
2023-04-27T04:28:50.432Z,99639.41
2023-04-27T04:31:18.306Z,99642.59
2023-04-27T04:33:45.041Z,99646.13
2023-04-27T04:36:11.779Z,99638.56
2023-04-27T04:38:38.619Z,99649.22
2023-04-27T04:41:05.376Z,99648.41
2023-04-27T04:43:33.437Z,99648.31
2023-04-27T04:46:03.658Z,99652.34
2023-04-27T04:48:30.433Z,99646.66
2023-04-27T04:50:57.416Z,99647.50
2023-04-27T04:53:24.152Z,99647.53
2023-04-27T04:55:50.885Z,99649.72
2023-04-27T04:58:17.542Z,99646.38
2023-04-27T05:00:44.406Z,99653.44
2023-04-27T05:03:11.209Z,99653.72
2023-04-27T05:05:38.006Z,99653.78
2023-04-27T05:08:04.800Z,99650.75
2023-04-27T05:10:31.473Z,99655.50
2023-04-27T05:12:58.131Z,99657.19
2023-04-27T05:15:24.767Z,99650.09
2023-04-27T05:17:51.483Z,99648.41
2023-04-27T05:20:18.226Z,99660.78
2023-04-27T05:22:44.850Z,99666.75
2023-04-27T05:25:11.717Z,99663.75
2023-04-27T05:27:38.347Z,99663.75
2023-04-27T05:30:05.369Z,99666.44
2023-04-27T05:32:34.238Z,99668.59
2023-04-27T05:35:01.006Z,99672.59
2023-04-27T05:37:27.647Z,99671.03
2023-04-27T05:39:54.220Z,99659.72
2023-04-27T05:42:20.819Z,99662.81
2023-04-27T05:44:47.602Z,99670.84
2023-04-27T05:47:14.228Z,99673.72
2023-04-27T05:49:40.884Z,99676.44
2023-04-27T05:52:07.565Z,99683.91
2023-04-27T05:54:34.232Z,99673.22
2023-04-27T05:57:01.067Z,99675.84
2023-04-27T05:59:29.400Z,99680.31
2023-04-27T06:01:57.066Z,99673.75
2023-04-27T06:04:23.996Z,99675.53
2023-04-27T06:06:50.938Z,99672.94
2023-04-27T06:09:17.593Z,99682.56
2023-04-27T06:11:44.937Z,99685.66
2023-04-27T06:14:11.582Z,99679.63
2023-04-27T06:16:38.343Z,99682.00
2023-04-27T06:19:04.992Z,99685.72
2023-04-27T06:21:33.862Z,99685.09
2023-04-27T06:24:01.151Z,99687.09
2023-04-27T06:26:28.381Z,99695.94
2023-04-27T06:28:56.212Z,99697.88
2023-04-27T06:31:22.991Z,99698.31
2023-04-27T06:33:49.730Z,99701.31
2023-04-27T06:36:17.217Z,99690.63
2023-04-27T06:38:43.912Z,99695.56
2023-04-27T06:41:11.019Z,99698.81
2023-04-27T06:43:37.945Z,99701.59
2023-04-27T06:46:06.416Z,99701.91
2023-04-27T06:48:33.094Z,99698.50
2023-04-27T06:50:59.788Z,99702.75
2023-04-27T06:53:26.995Z,99704.94
2023-04-27T06:55:53.744Z,99705.50
2023-04-27T06:58:20.484Z,99699.59
2023-04-27T07:00:47.154Z,99700.03
2023-04-27T07:03:14.755Z,99702.56
2023-04-27T07:05:41.582Z,99693.19
2023-04-27T07:08:09.132Z,99690.31
2023-04-27T07:10:36.143Z,99685.00
2023-04-27T07:13:02.808Z,99687.69
2023-04-27T07:15:31.144Z,99694.75
2023-04-27T07:17:57.836Z,99693.94
2023-04-27T07:20:24.548Z,99701.34
2023-04-27T07:22:51.211Z,99693.94
2023-04-27T07:25:17.945Z,99693.22
2023-04-27T07:27:45.348Z,99686.25
2023-04-27T07:30:13.925Z,99684.25
2023-04-27T07:32:41.986Z,99678.41
2023-04-27T07:35:12.062Z,99686.00
2023-04-27T07:37:38.783Z,99689.47
2023-04-27T07:40:16.941Z,99678.84
2023-04-27T07:42:46.480Z,99684.00
2023-04-27T07:45:14.138Z,99673.78
2023-04-27T07:47:40.864Z,99678.09
2023-04-27T07:50:08.424Z,99675.25
2023-04-27T07:52:35.104Z,99688.41
2023-04-27T07:55:02.032Z,99690.06
2023-04-27T07:57:28.701Z,99690.28
2023-04-27T07:59:55.599Z,99696.22
2023-04-27T08:02:22.340Z,99693.03
2023-04-27T08:04:50.171Z,99693.75
2023-04-27T08:07:17.820Z,99690.84
2023-04-27T08:09:44.694Z,99685.22
2023-04-27T08:12:11.295Z,99682.66
2023-04-27T08:14:38.070Z,99688.53
2023-04-27T08:17:04.810Z,99692.06
2023-04-27T08:19:31.501Z,99693.19
2023-04-27T08:21:58.141Z,99687.47
2023-04-27T08:24:24.847Z,99684.75
2023-04-27T08:26:51.552Z,99682.34
2023-04-27T08:29:27.187Z,99688.53
2023-04-27T08:31:57.982Z,99682.81
2023-04-27T08:34:24.681Z,99687.16
2023-04-27T08:36:51.616Z,99684.78
2023-04-27T08:39:18.556Z,99689.56
2023-04-27T08:41:45.588Z,99689.50
2023-04-27T08:44:12.431Z,99682.66
2023-04-27T08:46:39.718Z,99687.84
2023-04-27T08:49:07.899Z,99684.28
2023-04-27T08:51:35.454Z,99684.09
2023-04-27T08:54:02.434Z,99686.25
2023-04-27T08:56:30.166Z,99685.59
2023-04-27T08:58:58.646Z,99686.97
2023-04-27T09:01:27.423Z,99684.41
2023-04-27T09:03:59.072Z,99679.44
2023-04-27T09:06:33.099Z,99677.03
2023-04-27T09:09:00.962Z,99677.84
2023-04-27T09:11:31.295Z,99669.88
2023-04-27T09:13:59.836Z,99679.50
2023-04-27T09:16:29.232Z,99672.78
2023-04-27T09:18:57.368Z,99678.34
2023-04-27T09:21:24.536Z,99676.09
2023-04-27T09:23:51.813Z,99674.47
2023-04-27T09:26:23.659Z,99676.69
2023-04-27T09:28:52.139Z,99674.38
2023-04-27T09:31:19.249Z,99671.66
2023-04-27T09:33:47.523Z,99662.16
2023-04-27T09:36:14.454Z,99668.44
2023-04-27T09:38:41.536Z,99659.47
2023-04-27T09:41:08.252Z,99667.19
2023-04-27T09:43:35.170Z,99659.41
2023-04-27T09:46:04.561Z,99657.25
2023-04-27T09:48:31.273Z,99666.47
2023-04-27T09:50:57.901Z,99655.41
2023-04-27T09:53:45.568Z,99651.75
2023-04-27T09:56:31.017Z,99651.03
2023-04-27T09:59:09.976Z,99655.75
2023-04-27T10:01:50.805Z,99651.69
2023-04-27T10:04:39.454Z,99650.78
2023-04-27T10:07:12.797Z,99650.06
2023-04-27T10:09:51.733Z,99642.53
2023-04-27T10:12:18.467Z,99639.59
2023-04-27T10:14:48.863Z,99639.81
2023-04-27T10:17:16.123Z,99637.56
2023-04-27T10:19:57.362Z,99636.34
2023-04-27T10:22:26.210Z,99639.16
2023-04-27T10:24:52.832Z,99635.63
2023-04-27T10:27:22.554Z,99636.44
2023-04-27T10:29:49.838Z,99634.03
2023-04-27T10:32:25.096Z,99628.84
2023-04-27T10:35:02.270Z,99626.66
2023-04-27T10:37:39.702Z,99618.50
2023-04-27T10:40:08.631Z,99617.66
2023-04-27T10:42:36.308Z,99623.97
2023-04-27T10:45:03.249Z,99616.94
2023-04-27T10:47:38.208Z,99613.00
2023-04-27T10:50:06.098Z,99609.72
2023-04-27T10:52:33.082Z,99614.69
2023-04-27T10:55:12.732Z,99611.72
2023-04-27T10:58:06.050Z,99605.09
2023-04-27T11:00:39.583Z,99603.75
2023-04-27T11:03:25.348Z,99609.63
2023-04-27T11:06:05.655Z,99607.25
2023-04-27T11:08:36.819Z,99601.88
2023-04-27T11:11:05.103Z,99608.25
2023-04-27T11:13:33.535Z,99615.53
2023-04-27T11:16:00.692Z,99616.44
2023-04-27T11:18:31.180Z,99613.03
2023-04-27T11:21:09.426Z,99608.75
2023-04-27T11:23:39.801Z,99613.00
2023-04-27T11:26:15.215Z,99605.09
2023-04-27T11:28:43.311Z,99605.78
2023-04-27T11:31:10.183Z,99601.13
2023-04-27T11:33:37.110Z,99610.72
2023-04-27T11:36:03.935Z,99608.78
2023-04-27T11:38:34.347Z,99602.63
2023-04-27T11:41:05.836Z,99608.75
2023-04-27T11:43:33.435Z,99606.38
2023-04-27T11:46:10.545Z,99599.81
2023-04-27T11:48:38.370Z,99602.34
2023-04-27T11:51:06.059Z,99601.81
2023-04-27T11:53:34.926Z,99595.53
2023-04-27T11:56:05.163Z,99601.84
2023-04-27T11:58:36.329Z,99595.28
2023-04-27T12:01:07.417Z,99602.63
2023-04-27T12:03:34.741Z,99592.56
2023-04-27T12:08:31.750Z,99595.69
2023-04-27T12:10:58.495Z,99594.72
2023-04-27T12:13:25.168Z,99592.50
2023-04-27T12:15:52.487Z,99595.13
2023-04-27T12:18:19.131Z,99596.78
2023-04-27T12:20:46.500Z,99588.44
2023-04-27T12:23:13.138Z,99594.94
2023-04-27T12:25:41.224Z,99592.78
2023-04-27T12:28:08.104Z,99591.97
2023-04-27T12:30:35.070Z,99578.00
2023-04-27T12:33:02.543Z,99587.66
2023-04-27T12:35:32.164Z,99588.38
2023-04-27T12:37:59.013Z,99581.22
2023-04-27T12:40:25.758Z,99578.72
2023-04-27T12:42:52.416Z,99586.75
2023-04-27T12:45:19.057Z,99587.88
2023-04-27T12:47:58.645Z,99585.72
2023-04-27T12:50:29.055Z,99587.88
2023-04-27T12:52:55.687Z,99580.63
2023-04-27T12:55:32.201Z,99584.97
2023-04-27T12:58:00.230Z,99577.28
2023-04-27T13:00:27.036Z,99576.50
2023-04-27T13:02:53.986Z,99572.81
2023-04-27T13:05:22.157Z,99568.28
2023-04-27T13:07:48.973Z,99556.44
2023-04-27T13:10:15.992Z,99562.66
2023-04-27T13:12:42.836Z,99568.91
2023-04-27T13:15:10.153Z,99559.09
2023-04-27T13:17:37.189Z,99555.78
2023-04-27T13:20:04.073Z,99564.91
2023-04-27T13:22:30.784Z,99557.16
2023-04-27T13:24:58.130Z,99563.53
2023-04-27T13:27:28.329Z,99558.25
2023-04-27T13:29:55.018Z,99560.88
2023-04-27T13:32:22.336Z,99564.13
2023-04-27T13:34:49.389Z,99557.41
2023-04-27T13:37:16.618Z,99562.06
2023-04-27T13:39:43.351Z,99555.56
2023-04-27T13:42:10.155Z,99551.78
2023-04-27T13:44:36.750Z,99552.31
2023-04-27T13:47:03.514Z,99562.56
2023-04-27T13:49:30.304Z,99552.03
2023-04-27T13:51:56.941Z,99549.97
2023-04-27T13:54:23.703Z,99541.66
2023-04-27T13:56:50.455Z,99548.13
2023-04-27T13:59:17.250Z,99545.34
2023-04-27T14:01:44.032Z,99543.50
2023-04-27T14:04:10.851Z,99542.28
2023-04-27T14:06:37.720Z,99537.38
2023-04-27T14:09:04.927Z,99544.56
2023-04-27T14:11:37.197Z,99541.66
2023-04-27T14:14:08.986Z,99544.19
2023-04-27T14:16:35.806Z,99540.22
2023-04-27T14:19:02.636Z,99541.28
2023-04-27T14:21:29.348Z,99540.41
2023-04-27T14:23:56.239Z,99544.06
2023-04-27T14:26:22.959Z,99548.00
2023-04-27T14:28:49.598Z,99545.97
2023-04-27T14:31:16.251Z,99541.38
2023-04-27T14:33:42.954Z,99547.41
2023-04-27T14:36:09.713Z,99550.50
2023-04-27T14:38:36.386Z,99553.47
2023-04-27T14:41:05.716Z,99550.88
2023-04-27T14:43:32.362Z,99548.38
2023-04-27T14:46:05.134Z,99551.22
2023-04-27T14:48:46.504Z,99544.19
2023-04-27T14:51:16.728Z,99546.63
2023-04-27T14:53:44.059Z,99548.97
2023-04-27T14:56:11.320Z,99540.66
2023-04-27T14:58:37.983Z,99546.22
2023-04-27T15:01:04.681Z,99552.63
2023-04-27T15:03:34.591Z,99548.81
2023-04-27T15:06:01.957Z,99552.78
2023-04-27T15:08:30.158Z,99553.66
2023-04-27T15:10:59.868Z,99547.94
2023-04-27T15:13:27.457Z,99546.41
2023-04-27T15:15:58.339Z,99548.59
2023-04-27T15:18:25.635Z,99554.31
2023-04-27T15:20:56.581Z,99550.00
2023-04-27T15:23:24.364Z,99542.00
2023-04-27T15:25:53.856Z,99547.69
2023-04-27T15:28:20.516Z,99550.75
2023-04-27T15:30:47.424Z,99554.25
2023-04-27T15:33:15.150Z,99543.94
2023-04-27T15:35:42.109Z,99548.91
2023-04-27T15:38:10.611Z,99542.59
2023-04-27T15:40:37.235Z,99539.38
2023-04-27T15:43:04.907Z,99529.22
2023-04-27T15:45:31.953Z,99537.88
2023-04-27T15:47:58.940Z,99539.88
2023-04-27T15:50:26.002Z,99534.47
2023-04-27T15:52:52.997Z,99537.19
2023-04-27T15:55:19.728Z,99544.97
2023-04-27T15:57:46.458Z,99542.50
2023-04-27T16:00:16.325Z,99543.97
2023-04-27T16:02:43.291Z,99549.38
2023-04-27T16:05:10.329Z,99546.13
2023-04-27T16:07:39.416Z,99539.91
2023-04-27T16:10:07.260Z,99543.41
2023-04-27T16:12:33.949Z,99533.38
2023-04-27T16:15:01.026Z,99540.16
2023-04-27T16:17:29.211Z,99541.81
2023-04-27T16:19:55.976Z,99542.63
2023-04-27T16:22:22.688Z,99539.09
2023-04-27T16:24:49.532Z,99544.50
2023-04-27T16:27:20.881Z,99540.44
2023-04-27T16:29:47.634Z,99541.75
2023-04-27T16:32:14.423Z,99550.44
2023-04-27T16:34:41.609Z,99543.91
2023-04-27T16:37:08.288Z,99554.47
2023-04-27T16:39:35.000Z,99554.94
2023-04-27T16:42:01.645Z,99558.19
2023-04-27T16:44:28.377Z,99549.72
2023-04-27T16:46:55.029Z,99554.25
2023-04-27T16:49:21.633Z,99552.53
2023-04-27T16:51:48.363Z,99554.31
2023-04-27T16:54:16.556Z,99556.25
2023-04-27T16:56:43.331Z,99551.13
2023-04-27T16:59:12.490Z,99559.91
2023-04-27T17:01:40.022Z,99563.63
2023-04-27T17:04:06.831Z,99565.22
2023-04-27T17:06:34.911Z,99559.81
2023-04-27T17:09:01.726Z,99565.66
2023-04-27T17:11:28.381Z,99563.31
2023-04-27T17:13:55.092Z,99568.56
2023-04-27T17:16:21.998Z,99562.63
2023-04-27T17:18:49.095Z,99576.81
2023-04-27T17:21:16.828Z,99575.88
2023-04-27T17:23:46.511Z,99569.88
2023-04-27T17:26:15.944Z,99570.13
2023-04-27T17:28:42.655Z,99574.19
2023-04-27T17:31:09.306Z,99571.53
2023-04-27T17:33:36.076Z,99579.59
2023-04-27T17:36:02.847Z,99581.78
2023-04-27T17:38:29.492Z,99583.91
2023-04-27T17:40:56.341Z,99586.63
2023-04-27T17:43:22.976Z,99593.97
2023-04-27T17:45:49.687Z,99599.16
2023-04-27T17:48:16.437Z,99592.59
2023-04-27T17:50:43.534Z,99599.56
2023-04-27T17:53:10.178Z,99591.66
2023-04-27T17:55:36.823Z,99588.03
2023-04-27T17:58:06.222Z,99585.94
2023-04-27T18:00:33.131Z,99591.59
2023-04-27T18:02:59.872Z,99594.41
2023-04-27T18:05:27.419Z,99594.97
2023-04-27T18:07:54.112Z,99596.47
2023-04-27T18:10:20.865Z,99599.03
2023-04-27T18:12:47.586Z,99604.88
2023-04-27T18:15:14.226Z,99604.16
2023-04-27T18:17:41.141Z,99605.97
2023-04-27T18:20:10.500Z,99604.59
2023-04-27T18:22:39.630Z,99614.84
2023-04-27T18:25:07.242Z,99618.75
2023-04-27T18:27:33.928Z,99611.06
2023-04-27T18:30:00.738Z,99612.09
2023-04-27T18:32:27.474Z,99615.69
2023-04-27T18:34:54.182Z,99617.72
2023-04-27T18:37:20.921Z,99615.13
2023-04-27T18:39:47.642Z,99627.94
2023-04-27T18:42:14.257Z,99626.25
2023-04-27T18:44:40.987Z,99633.16
2023-04-27T18:47:07.946Z,99632.56
2023-04-27T18:49:34.660Z,99634.94
2023-04-27T18:52:01.400Z,99638.84
2023-04-27T18:54:28.039Z,99641.88
2023-04-27T18:56:54.768Z,99641.19
2023-04-27T18:59:21.532Z,99637.00
2023-04-27T19:01:48.262Z,99636.47
2023-04-27T19:04:16.408Z,99634.25
2023-04-27T19:06:43.225Z,99646.91
2023-04-27T19:09:10.208Z,99649.19
2023-04-27T19:11:36.946Z,99644.31
2023-04-27T19:14:03.605Z,99648.59
2023-04-27T19:16:30.350Z,99654.38
2023-04-27T19:18:57.072Z,99656.13
2023-04-27T19:21:23.739Z,99659.81
2023-04-27T19:23:50.364Z,99659.00
2023-04-27T19:26:17.044Z,99656.41
2023-04-27T19:28:43.698Z,99661.66
2023-04-27T19:31:10.530Z,99665.59
2023-04-27T19:33:37.269Z,99659.25
2023-04-27T19:36:04.360Z,99664.00
2023-04-27T19:38:31.046Z,99663.81
2023-04-27T19:40:57.784Z,99664.06
2023-04-27T19:43:24.415Z,99672.72
2023-04-27T19:45:51.384Z,99673.72
2023-04-27T19:48:18.244Z,99668.81
2023-04-27T19:50:45.016Z,99667.38
2023-04-27T19:53:11.732Z,99677.91
2023-04-27T19:55:39.216Z,99680.38
2023-04-27T19:58:06.328Z,99672.78
2023-04-27T20:00:33.392Z,99682.25
2023-04-27T20:03:00.226Z,99682.22
2023-04-27T20:05:27.219Z,99669.91
2023-04-27T20:07:54.135Z,99682.84
2023-04-27T20:10:21.472Z,99684.69
2023-04-27T20:12:56.550Z,99679.56
2023-04-27T20:15:24.494Z,99682.63
2023-04-27T20:17:51.945Z,99694.75
2023-04-27T20:20:19.293Z,99692.72
2023-04-27T20:22:46.099Z,99689.84
2023-04-27T20:25:14.857Z,99687.31
2023-04-27T20:27:41.890Z,99689.56
2023-04-27T20:30:09.101Z,99695.72
2023-04-27T20:32:36.396Z,99694.84
2023-04-27T20:35:04.804Z,99687.88
2023-04-27T20:37:32.437Z,99698.75
2023-04-27T20:39:59.504Z,99692.16
2023-04-27T20:42:26.241Z,99696.81
2023-04-27T20:44:54.873Z,99694.38
2023-04-27T20:47:21.984Z,99690.66
2023-04-27T20:49:48.945Z,99694.28
2023-04-27T20:52:15.833Z,99697.38
2023-04-27T20:54:42.518Z,99704.31
2023-04-27T20:57:13.496Z,99697.31
2023-04-27T20:59:41.126Z,99710.41
2023-04-27T21:02:07.816Z,99705.25
2023-04-27T21:04:34.642Z,99706.03
2023-04-27T21:07:01.448Z,99706.19
2023-04-27T21:09:28.233Z,99706.19
2023-04-27T21:11:55.003Z,99701.88
2023-04-27T21:14:21.760Z,99710.03
2023-04-27T21:16:48.428Z,99720.19
2023-04-27T21:19:16.575Z,99712.38
2023-04-27T21:21:43.396Z,99707.28
2023-04-27T21:24:10.244Z,99718.63
2023-04-27T21:26:36.885Z,99727.19
2023-04-27T21:29:05.547Z,99722.69
2023-04-27T21:31:33.332Z,99726.38
2023-04-27T21:34:00.196Z,99724.44
2023-04-27T21:36:26.925Z,99724.72
2023-04-27T21:38:53.667Z,99719.75
2023-04-27T21:41:20.346Z,99710.84
2023-04-27T21:43:47.016Z,99721.22
2023-04-27T21:46:13.726Z,99716.84
2023-04-27T21:48:40.404Z,99720.06
2023-04-27T21:51:07.045Z,99726.63
2023-04-27T21:53:33.668Z,99730.84
2023-04-27T21:56:00.358Z,99733.94
2023-04-27T21:58:28.689Z,99732.25
2023-04-27T22:00:55.368Z,99732.44
2023-04-27T22:03:22.759Z,99726.94
2023-04-27T22:05:50.343Z,99725.72
2023-04-27T22:08:18.387Z,99729.59
2023-04-27T22:10:45.540Z,99731.59
2023-04-27T22:13:18.365Z,99729.16
2023-04-27T22:15:46.526Z,99731.81
2023-04-27T22:18:17.329Z,99744.72
2023-04-27T22:20:44.173Z,99741.88
2023-04-27T22:23:12.102Z,99745.72
2023-04-27T22:25:38.816Z,99744.91
2023-04-27T22:28:05.454Z,99742.94
2023-04-27T22:30:32.142Z,99743.50
2023-04-27T22:32:58.962Z,99738.75
2023-04-27T22:35:27.577Z,99739.78
2023-04-27T22:37:59.324Z,99745.53
2023-04-27T22:40:26.447Z,99738.97
2023-04-27T22:42:54.109Z,99732.38
2023-04-27T22:45:22.162Z,99733.00
2023-04-27T22:47:49.606Z,99727.78
2023-04-27T22:50:16.811Z,99719.63
2023-04-27T22:52:43.587Z,99721.47
2023-04-27T22:55:11.452Z,99719.38
2023-04-27T22:57:38.935Z,99716.72
2023-04-27T23:00:11.658Z,99717.06
2023-04-27T23:02:39.762Z,99706.00
2023-04-27T23:05:11.013Z,99707.66
2023-04-27T23:07:38.515Z,99708.00
2023-04-27T23:10:06.097Z,99703.72
2023-04-27T23:12:33.282Z,99705.13
2023-04-27T23:15:00.055Z,99712.06
2023-04-27T23:17:32.794Z,99696.03
2023-04-27T23:20:00.685Z,99699.53
2023-04-27T23:22:27.929Z,99706.47
2023-04-27T23:24:55.037Z,99699.25
2023-04-27T23:27:22.714Z,99698.22
2023-04-27T23:29:49.379Z,99696.94
2023-04-27T23:32:16.054Z,99692.19
2023-04-27T23:34:42.696Z,99696.03
2023-04-27T23:37:09.348Z,99696.34
2023-04-27T23:39:37.001Z,99694.25
2023-04-27T23:42:03.837Z,99685.53
2023-04-27T23:44:30.551Z,99685.34
2023-04-27T23:46:57.530Z,99686.16
2023-04-27T23:49:24.241Z,99698.38
2023-04-27T23:51:52.476Z,99690.50
2023-04-27T23:54:19.214Z,99685.84
2023-04-27T23:56:47.309Z,99690.94
2023-04-27T23:59:15.039Z,99697.28
